Time;durP1;ratioP1;P1;durP2;ratioP2;P2;SDS_P1;SDS_P2;PMS_P1;PMS_P2;Temp;Humidity;BMP_temperature;BMP_pressure;BME280_temperature;BME280_humidity;BME280_pressure;Samples;Min_cycle;Max_cycle;Signal;HPM_P1;HPM_P2
2024/03/05 00:01:06;;;;;;;;;1.00;1.00;;;;;;;;4982801;28;47035;-86
2024/03/05 00:03:31;;;;;;;;;1.00;1.00;;;;;;;;4982892;28;46156;-86
2024/03/05 00:05:56;;;;;;;;;1.67;1.67;;;;;;;;4982914;28;45323;-86
2024/03/05 00:08:21;;;;;;;;;2.00;2.00;;;;;;;;4982815;28;46902;-87
2024/03/05 00:10:46;;;;;;;;;2.00;2.00;;;;;;;;4982466;28;47310;-86
2024/03/05 00:13:12;;;;;;;;;1.33;1.33;;;;;;;;5000366;28;45424;-85
2024/03/05 00:15:39;;;;;;;;;1.00;1.00;;;;;;;;5000719;28;45232;-87
2024/03/05 00:18:05;;;;;;;;;1.33;1.33;;;;;;;;4973826;28;46439;-87
2024/03/05 00:20:30;;;;;;;;;1.00;1.00;;;;;;;;4962520;28;47187;-87
2024/03/05 00:22:56;;;;;;;;;1.00;1.00;;;;;;;;4980481;28;45364;-86
2024/03/05 00:25:21;;;;;;;;;1.00;1.00;;;;;;;;4962957;28;45663;-87
2024/03/05 00:27:48;;;;;;;;;1.00;1.00;;;;;;;;4980710;28;45503;-87
2024/03/05 00:30:13;;;;;;;;;1.67;1.67;;;;;;;;4962868;28;47167;-89
2024/03/05 00:32:39;;;;;;;;;1.00;1.00;;;;;;;;4963030;28;45315;-86
2024/03/05 00:35:08;;;;;;;;;1.00;1.00;;;;;;;;4962680;28;45330;-87
2024/03/05 00:37:35;;;;;;;;;1.00;1.00;;;;;;;;4980710;28;45481;-87
2024/03/05 00:40:00;;;;;;;;;3.00;2.00;;;;;;;;4962815;28;48626;-87
2024/03/05 00:42:26;;;;;;;;;1.00;1.00;;;;;;;;4963046;28;45167;-87
2024/03/05 00:44:51;;;;;;;;;1.00;1.00;;;;;;;;4963016;28;45370;-87
2024/03/05 00:47:16;;;;;;;;;0.00;0.00;;;;;;;;4962881;28;47103;-87
2024/03/05 00:49:41;;;;;;;;;1.00;1.00;;;;;;;;4962789;28;47119;-88
2024/03/05 00:52:06;;;;;;;;;1.33;1.33;;;;;;;;4962971;28;45703;-87
2024/03/05 00:54:31;;;;;;;;;1.00;1.00;;;;;;;;4980683;28;45235;-87
2024/03/05 00:56:57;;;;;;;;;2.00;1.00;;;;;;;;4971611;28;47439;-87
2024/03/05 00:59:22;;;;;;;;;1.33;1.33;;;;;;;;5001967;28;46966;-87
2024/03/05 01:01:48;;;;;;;;;1.00;1.00;;;;;;;;5001842;28;45863;-87
2024/03/05 01:04:14;;;;;;;;;1.67;1.00;;;;;;;;4995577;28;45204;-88
2024/03/05 01:06:42;;;;;;;;;1.00;1.00;;;;;;;;4981958;28;46352;-87
2024/03/05 01:09:11;;;;;;;;;1.00;1.00;;;;;;;;4981623;28;48679;-87
2024/03/05 01:11:37;;;;;;;;;1.00;1.00;;;;;;;;4981267;28;45691;-86
2024/03/05 01:14:02;;;;;;;;;0.67;0.67;;;;;;;;4981879;28;45562;-86
2024/03/05 01:16:27;;;;;;;;;2.00;0.67;;;;;;;;4999410;28;45429;-86
2024/03/05 01:18:53;;;;;;;;;2.00;0.67;;;;;;;;4981760;28;47331;-85
2024/03/05 01:21:19;;;;;;;;;1.33;1.33;;;;;;;;4999661;28;45222;-86
2024/03/05 01:23:44;;;;;;;;;1.00;1.00;;;;;;;;4982105;28;45268;-86
2024/03/05 01:26:10;;;;;;;;;2.00;1.00;;;;;;;;4999478;28;45200;-86
2024/03/05 01:28:35;;;;;;;;;2.33;2.00;;;;;;;;4981616;28;48052;-86
2024/03/05 01:31:00;;;;;;;;;0.33;0.33;;;;;;;;4981312;28;45354;-85
2024/03/05 01:33:25;;;;;;;;;1.00;1.00;;;;;;;;4981576;28;45252;-85
2024/03/05 01:35:51;;;;;;;;;0.33;0.33;;;;;;;;4999281;28;45484;-85
2024/03/05 01:38:17;;;;;;;;;1.67;1.67;;;;;;;;4981331;28;47203;-85
2024/03/05 01:40:42;;;;;;;;;1.00;1.00;;;;;;;;4981425;28;45318;-85
2024/03/05 01:43:09;;;;;;;;;0.00;0.00;;;;;;;;4981716;28;45414;-85
2024/03/05 01:45:34;;;;;;;;;4.00;1.33;;;;;;;;4981145;28;46231;-85
2024/03/05 01:48:00;;;;;;;;;1.00;0.00;;;;;;;;4983896;28;47960;-85
2024/03/05 01:50:26;;;;;;;;;1.00;1.00;;;;;;;;4984578;28;45286;-86
2024/03/05 01:52:52;;;;;;;;;1.33;1.33;;;;;;;;4984956;28;45306;-85
2024/03/05 01:55:17;;;;;;;;;3.00;1.00;;;;;;;;5002341;28;45476;-85
2024/03/05 01:57:43;;;;;;;;;1.00;1.00;;;;;;;;4995073;28;47401;-86
2024/03/05 02:00:15;;;;;;;;;1.00;1.00;;;;;;;;5004479;28;46289;-85
2024/03/05 02:02:40;;;;;;;;;1.00;1.00;;;;;;;;5004078;28;45404;-86
2024/03/05 02:05:08;;;;;;;;;1.00;1.00;;;;;;;;5022008;28;45508;-86
2024/03/05 02:07:35;;;;;;;;;2.00;2.00;;;;;;;;5004362;28;48064;-86
2024/03/05 02:10:07;;;;;;;;;0.00;0.00;;;;;;;;5021780;28;45265;-86
2024/03/05 02:12:33;;;;;;;;;3.00;2.00;;;;;;;;5004325;28;45361;-85
2024/03/05 02:14:58;;;;;;;;;1.00;1.00;;;;;;;;5003957;28;46063;-85
2024/03/05 02:17:23;;;;;;;;;2.67;1.67;;;;;;;;5003817;28;47903;-85
2024/03/05 02:19:52;;;;;;;;;0.00;0.00;;;;;;;;5004053;28;45225;-86
2024/03/05 02:22:17;;;;;;;;;1.00;1.00;;;;;;;;5004085;28;45464;-86
2024/03/05 02:24:42;;;;;;;;;1.00;1.00;;;;;;;;5021940;28;45539;-86
2024/03/05 02:27:08;;;;;;;;;1.00;1.00;;;;;;;;5021824;28;45319;-86
2024/03/05 02:29:38;;;;;;;;;2.00;1.00;;;;;;;;5021646;28;45307;-86
2024/03/05 02:32:04;;;;;;;;;0.00;0.00;;;;;;;;5003719;28;45336;-86
2024/03/05 02:34:29;;;;;;;;;1.33;1.33;;;;;;;;5003615;28;46018;-86
2024/03/05 02:36:54;;;;;;;;;1.67;1.00;;;;;;;;5003793;28;46828;-86
2024/03/05 02:39:20;;;;;;;;;1.00;1.00;;;;;;;;5003818;28;45319;-86
2024/03/05 02:41:45;;;;;;;;;2.33;1.00;;;;;;;;5003893;28;45228;-86
2024/03/05 02:44:10;;;;;;;;;0.33;0.33;;;;;;;;4989243;28;45928;-86
2024/03/05 02:46:35;;;;;;;;;1.67;0.67;;;;;;;;5001536;28;46451;-86
2024/03/05 02:49:01;;;;;;;;;1.00;1.00;;;;;;;;4983629;28;45353;-86
2024/03/05 02:51:28;;;;;;;;;2.00;2.00;;;;;;;;4983649;28;45411;-86
2024/03/05 02:53:54;;;;;;;;;0.00;0.00;;;;;;;;4983772;28;46502;-86
2024/03/05 02:56:20;;;;;;;;;1.00;1.00;;;;;;;;5001565;28;46195;-86
2024/03/05 02:58:45;;;;;;;;;1.00;1.00;;;;;;;;4983485;28;45405;-86
2024/03/05 03:01:10;;;;;;;;;1.67;1.67;;;;;;;;4983926;28;45403;-87
2024/03/05 03:03:36;;;;;;;;;1.67;1.00;;;;;;;;4983622;28;46206;-86
2024/03/05 03:06:05;;;;;;;;;1.67;1.67;;;;;;;;5001414;28;45277;-86
2024/03/05 03:08:30;;;;;;;;;3.00;2.00;;;;;;;;4983533;28;45368;-87
2024/03/05 03:10:55;;;;;;;;;1.00;1.00;;;;;;;;5001270;28;45471;-87
2024/03/05 03:13:21;;;;;;;;;1.67;1.00;;;;;;;;4983646;28;46177;-86
2024/03/05 03:15:47;;;;;;;;;1.00;1.00;;;;;;;;4983347;28;47811;-86
2024/03/05 03:18:12;;;;;;;;;1.00;1.00;;;;;;;;4983684;28;45463;-87
2024/03/05 03:20:37;;;;;;;;;0.67;0.67;;;;;;;;5001007;28;45494;-86
2024/03/05 03:23:03;;;;;;;;;2.00;1.00;;;;;;;;4983697;28;46013;-87
2024/03/05 03:25:30;;;;;;;;;2.33;0.67;;;;;;;;4983564;28;47904;-89
2024/03/05 03:27:55;;;;;;;;;1.67;1.67;;;;;;;;5001446;28;45339;-87
2024/03/05 03:30:20;;;;;;;;;2.00;2.00;;;;;;;;5000851;28;45328;-86
2024/03/05 03:32:46;;;;;;;;;1.00;1.00;;;;;;;;4983148;28;46022;-86
2024/03/05 03:35:13;;;;;;;;;0.00;0.00;;;;;;;;4983265;28;48259;-86
2024/03/05 03:37:40;;;;;;;;;1.00;1.00;;;;;;;;5001124;28;45314;-86
2024/03/05 03:40:08;;;;;;;;;3.00;1.33;;;;;;;;5001053;28;45218;-86
2024/03/05 03:42:33;;;;;;;;;1.00;1.00;;;;;;;;4983129;28;47369;-86
2024/03/05 03:44:59;;;;;;;;;1.33;1.33;;;;;;;;5000784;28;45523;-86
2024/03/05 03:47:24;;;;;;;;;1.00;1.00;;;;;;;;4983027;28;46011;-86
2024/03/05 03:49:49;;;;;;;;;2.67;2.00;;;;;;;;4983079;28;45394;-86
2024/03/05 03:52:17;;;;;;;;;2.33;1.00;;;;;;;;5000846;28;45497;-86
2024/03/05 03:54:43;;;;;;;;;1.00;1.00;;;;;;;;4983231;28;48002;-87
2024/03/05 03:57:09;;;;;;;;;4.00;2.67;;;;;;;;4982865;28;45243;-86
2024/03/05 03:59:35;;;;;;;;;2.67;2.67;;;;;;;;4983136;28;45339;-87
2024/03/05 04:02:00;;;;;;;;;2.00;2.00;;;;;;;;5000244;28;45328;-86
2024/03/05 04:04:25;;;;;;;;;2.00;2.00;;;;;;;;4982723;28;47241;-86
2024/03/05 04:06:50;;;;;;;;;3.00;2.00;;;;;;;;5000386;28;45336;-86
2024/03/05 04:09:16;;;;;;;;;4.67;2.67;;;;;;;;4982096;28;45366;-86
2024/03/05 04:11:42;;;;;;;;;5.00;1.33;;;;;;;;5000587;28;45266;-86
2024/03/05 04:14:07;;;;;;;;;3.67;2.00;;;;;;;;4982860;28;48306;-86
2024/03/05 04:16:33;;;;;;;;;2.00;1.00;;;;;;;;4982560;28;45426;-87
2024/03/05 04:18:58;;;;;;;;;3.67;3.00;;;;;;;;4982920;28;45343;-87
2024/03/05 04:21:23;;;;;;;;;4.33;4.00;;;;;;;;4982599;28;46263;-86
2024/03/05 04:23:49;;;;;;;;;3.33;3.33;;;;;;;;4982270;28;48098;-86
2024/03/05 04:26:16;;;;;;;;;3.00;3.00;;;;;;;;5000278;28;45260;-86
2024/03/05 04:28:48;;;;;;;;;2.00;2.00;;;;;;;;4982701;28;45355;-86
2024/03/05 04:31:14;;;;;;;;;4.33;4.33;;;;;;;;4981860;28;46076;-86
2024/03/05 04:33:42;;;;;;;;;1.00;1.00;;;;;;;;4999964;28;45391;-85
2024/03/05 04:36:09;;;;;;;;;2.33;2.33;;;;;;;;4982262;28;45285;-86
2024/03/05 04:38:35;;;;;;;;;4.67;4.00;;;;;;;;4981753;28;45340;-86
2024/03/05 04:41:00;;;;;;;;;3.00;3.00;;;;;;;;4982412;28;46146;-86
2024/03/05 04:43:25;;;;;;;;;3.33;2.33;;;;;;;;4982182;28;48148;-86
2024/03/05 04:45:50;;;;;;;;;2.67;2.00;;;;;;;;4982316;28;45857;-86
2024/03/05 04:48:15;;;;;;;;;3.00;3.00;;;;;;;;4982186;28;46078;-87
2024/03/05 04:50:41;;;;;;;;;4.00;4.00;;;;;;;;4982203;28;47266;-87
2024/03/05 04:53:06;;;;;;;;;2.00;1.67;;;;;;;;4982099;28;47030;-86
2024/03/05 04:55:31;;;;;;;;;3.00;3.00;;;;;;;;4999823;28;45328;-86
2024/03/05 04:57:56;;;;;;;;;4.67;2.33;;;;;;;;4982320;28;45362;-86
2024/03/05 05:00:23;;;;;;;;;2.00;2.00;;;;;;;;4982003;28;47278;-86
2024/03/05 05:02:49;;;;;;;;;5.00;3.33;;;;;;;;4981719;28;47179;-86
2024/03/05 05:05:15;;;;;;;;;3.00;3.00;;;;;;;;4982016;28;45314;-86
2024/03/05 05:07:41;;;;;;;;;3.33;3.33;;;;;;;;4999923;28;45431;-86
2024/03/05 05:10:07;;;;;;;;;1.67;1.67;;;;;;;;4999348;28;45388;-87
2024/03/05 05:12:33;;;;;;;;;3.33;3.33;;;;;;;;4981958;28;48265;-87
2024/03/05 05:15:00;;;;;;;;;3.00;3.00;;;;;;;;4999614;28;45242;-88
2024/03/05 05:17:25;;;;;;;;;3.00;3.00;;;;;;;;4981394;28;45266;-87
2024/03/05 05:19:50;;;;;;;;;4.67;4.00;;;;;;;;4981320;28;45870;-86
2024/03/05 05:22:15;;;;;;;;;5.00;5.00;;;;;;;;4984969;28;48329;-86
2024/03/05 05:24:42;;;;;;;;;3.33;2.00;;;;;;;;4984765;28;45402;-86
2024/03/05 05:27:07;;;;;;;;;3.33;3.00;;;;;;;;4985226;28;45451;-85
2024/03/05 05:29:32;;;;;;;;;4.00;3.00;;;;;;;;5002539;28;45352;-86
2024/03/05 05:31:59;;;;;;;;;5.67;3.67;;;;;;;;4984576;28;47256;-85
2024/03/05 05:34:24;;;;;;;;;4.00;2.00;;;;;;;;4985086;28;46071;-86
2024/03/05 05:36:49;;;;;;;;;4.00;4.00;;;;;;;;4985140;28;45378;-86
2024/03/05 05:39:14;;;;;;;;;2.00;2.00;;;;;;;;5002620;28;45254;-86
2024/03/05 05:41:40;;;;;;;;;4.00;4.00;;;;;;;;4984806;28;47934;-86
2024/03/05 05:44:05;;;;;;;;;3.67;3.00;;;;;;;;4985758;28;45330;-84
2024/03/05 05:46:32;;;;;;;;;3.33;3.00;;;;;;;;4984828;28;45476;-86
2024/03/05 05:48:58;;;;;;;;;3.67;3.67;;;;;;;;5002754;28;45351;-87
2024/03/05 05:51:30;;;;;;;;;5.00;5.00;;;;;;;;4987415;28;47122;-90
2024/03/05 05:53:55;;;;;;;;;4.00;3.00;;;;;;;;4986330;28;45612;-87
2024/03/05 05:56:20;;;;;;;;;3.33;3.00;;;;;;;;4987360;28;45373;-88
2024/03/05 05:58:46;;;;;;;;;6.00;5.00;;;;;;;;5008189;28;46962;-87
2024/03/05 06:01:13;;;;;;;;;3.33;3.33;;;;;;;;4993663;28;47058;-88
2024/03/05 06:03:40;;;;;;;;;7.00;5.00;;;;;;;;4985497;28;45397;-85
2024/03/05 06:06:06;;;;;;;;;4.00;4.00;;;;;;;;5001973;28;45445;-87
2024/03/05 06:08:33;;;;;;;;;4.67;4.67;;;;;;;;5001503;28;45548;-87
2024/03/05 06:10:58;;;;;;;;;4.00;4.00;;;;;;;;5003651;28;45428;-89
2024/03/05 06:13:24;;;;;;;;;8.33;5.67;;;;;;;;4987620;28;45422;-87
2024/03/05 06:15:50;;;;;;;;;5.00;4.67;;;;;;;;5005288;28;45337;-87
2024/03/05 06:18:15;;;;;;;;;4.00;4.00;;;;;;;;4988554;28;46407;-90
2024/03/05 06:20:42;;;;;;;;;4.00;4.00;;;;;;;;4988283;28;47260;-90
2024/03/05 06:23:07;;;;;;;;;4.67;3.00;;;;;;;;4988473;28;45250;-90
2024/03/05 06:25:33;;;;;;;;;5.00;4.33;;;;;;;;4986229;28;45251;-89
2024/03/05 06:27:59;;;;;;;;;7.67;5.67;;;;;;;;4984785;28;46321;-89
2024/03/05 06:30:25;;;;;;;;;4.67;4.67;;;;;;;;4984595;28;47891;-89
2024/03/05 06:32:51;;;;;;;;;5.00;4.00;;;;;;;;4985418;28;45315;-89
2024/03/05 06:35:17;;;;;;;;;4.00;2.00;;;;;;;;5004977;28;45377;-89
2024/03/05 06:37:49;;;;;;;;;3.67;3.67;;;;;;;;5005553;28;45518;-90
2024/03/05 06:40:16;;;;;;;;;5.33;4.67;;;;;;;;4988442;28;48109;-90
2024/03/05 06:42:41;;;;;;;;;6.00;5.00;;;;;;;;4985148;28;45390;-89
2024/03/05 06:45:08;;;;;;;;;5.00;5.00;;;;;;;;4986711;28;44677;-90
2024/03/05 06:47:42;;;;;;;;;2.00;2.00;;;;;;;;4985430;28;45924;-90
2024/03/05 06:50:10;;;;;;;;;6.00;4.00;;;;;;;;4984825;28;47514;-90
2024/03/05 06:58:04;;;;;;;;;4.00;4.00;;;;;;;;5022692;28;45314;-83
2024/03/05 07:00:29;;;;;;;;;5.00;5.00;;;;;;;;5023397;28;47382;-82
2024/03/05 07:02:54;;;;;;;;;3.67;3.67;;;;;;;;5021369;28;45298;-82
2024/03/05 07:05:22;;;;;;;;;5.00;5.00;;;;;;;;5021503;28;45608;-82
2024/03/05 07:07:47;;;;;;;;;4.00;4.00;;;;;;;;5021363;28;45162;-82
2024/03/05 07:10:21;;;;;;;;;4.67;4.67;;;;;;;;5017142;28;45504;-82
2024/03/05 07:12:46;;;;;;;;;3.33;3.00;;;;;;;;5001444;28;45360;-82
2024/03/05 07:15:14;;;;;;;;;5.67;5.67;;;;;;;;5001627;28;45582;-82
2024/03/05 07:17:41;;;;;;;;;5.00;3.33;;;;;;;;5000984;28;45266;-83
2024/03/05 07:20:18;;;;;;;;;5.00;4.00;;;;;;;;5001859;28;46184;-82
2024/03/05 07:22:43;;;;;;;;;4.67;4.67;;;;;;;;4983719;28;45799;-81
2024/03/05 07:25:10;;;;;;;;;3.67;3.00;;;;;;;;5001973;28;45309;-81
2024/03/05 07:27:35;;;;;;;;;4.67;4.67;;;;;;;;4984108;28;46379;-76
2024/03/05 07:30:01;;;;;;;;;6.00;5.67;;;;;;;;5002023;28;46262;-80
2024/03/05 07:32:26;;;;;;;;;2.00;2.00;;;;;;;;5004496;28;45415;-80
2024/03/05 07:34:51;;;;;;;;;7.00;5.00;;;;;;;;5001713;28;45433;-81
2024/03/05 07:37:16;;;;;;;;;6.67;5.00;;;;;;;;4973075;28;47267;-81
2024/03/05 07:39:41;;;;;;;;;5.67;3.00;;;;;;;;4963482;28;47107;-82
2024/03/05 07:42:06;;;;;;;;;5.00;5.00;;;;;;;;4981273;28;45256;-81
2024/03/05 07:44:34;;;;;;;;;7.33;5.33;;;;;;;;4963693;28;45268;-82
2024/03/05 07:46:59;;;;;;;;;4.00;4.00;;;;;;;;4981297;28;45377;-80
2024/03/05 07:49:24;;;;;;;;;3.67;3.67;;;;;;;;4986755;28;45509;-80
2024/03/05 07:51:49;;;;;;;;;3.00;2.00;;;;;;;;4970920;28;46073;-78
2024/03/05 07:54:15;;;;;;;;;5.00;4.33;;;;;;;;4995443;28;45144;-79
2024/03/05 07:56:40;;;;;;;;;3.33;3.33;;;;;;;;5003682;28;44763;-79
2024/03/05 07:59:05;;;;;;;;;4.00;4.00;;;;;;;;4998389;28;47240;-79
2024/03/05 08:01:33;;;;;;;;;3.00;3.00;;;;;;;;4998793;28;45350;-79
2024/03/05 08:03:59;;;;;;;;;3.33;3.33;;;;;;;;4995021;28;45352;-79
2024/03/05 08:06:25;;;;;;;;;6.00;5.67;;;;;;;;4999230;28;46157;-79
2024/03/05 08:08:50;;;;;;;;;5.00;2.33;;;;;;;;5016274;28;46728;-79
2024/03/05 08:11:16;;;;;;;;;5.00;5.00;;;;;;;;5011593;28;46160;-79
2024/03/05 08:13:41;;;;;;;;;2.00;2.00;;;;;;;;5019156;28;45231;-79
2024/03/05 08:16:08;;;;;;;;;2.00;2.00;;;;;;;;5031077;28;45215;-78
2024/03/05 08:18:33;;;;;;;;;2.00;2.00;;;;;;;;5021636;28;46434;-79
2024/03/05 08:21:01;;;;;;;;;2.33;2.33;;;;;;;;5002173;28;45277;-79
2024/03/05 08:23:26;;;;;;;;;3.33;3.00;;;;;;;;5020561;28;45309;-79
2024/03/05 08:25:51;;;;;;;;;3.00;2.67;;;;;;;;5020880;28;45261;-79
2024/03/05 08:28:16;;;;;;;;;3.67;2.67;;;;;;;;5001855;28;47456;-79
2024/03/05 08:30:42;;;;;;;;;1.67;1.67;;;;;;;;5019509;28;45708;-78
2024/03/05 08:33:07;;;;;;;;;2.67;1.00;;;;;;;;5002071;28;45246;-78
2024/03/05 08:35:32;;;;;;;;;1.00;1.00;;;;;;;;5001655;28;46048;-79
2024/03/05 08:37:59;;;;;;;;;2.67;2.67;;;;;;;;5020787;28;45366;-76
2024/03/05 08:40:24;;;;;;;;;2.00;2.00;;;;;;;;5000904;28;45341;-77
2024/03/05 08:42:50;;;;;;;;;3.67;3.00;;;;;;;;4999098;28;45364;-78
2024/03/05 08:45:18;;;;;;;;;2.67;1.00;;;;;;;;5000597;28;45301;-78
2024/03/05 08:47:46;;;;;;;;;2.00;1.33;;;;;;;;4981969;28;47040;-77
2024/03/05 08:50:12;;;;;;;;;2.67;1.00;;;;;;;;5000023;28;45383;-80
2024/03/05 08:52:37;;;;;;;;;5.67;4.33;;;;;;;;4999613;28;45448;-79
2024/03/05 08:55:05;;;;;;;;;2.00;2.00;;;;;;;;4981659;28;46080;-77
2024/03/05 08:57:30;;;;;;;;;2.00;2.00;;;;;;;;4990180;28;47585;-78
2024/03/05 08:59:55;;;;;;;;;2.00;2.00;;;;;;;;5001563;28;45325;-78
2024/03/05 09:02:20;;;;;;;;;4.33;4.00;;;;;;;;5001110;28;45559;-78
2024/03/05 09:04:46;;;;;;;;;3.00;2.00;;;;;;;;5002415;28;46194;-79
2024/03/05 09:07:11;;;;;;;;;1.00;1.00;;;;;;;;5025958;28;46128;-79
2024/03/05 09:09:36;;;;;;;;;1.33;1.33;;;;;;;;5007955;28;45334;-80
2024/03/05 09:12:01;;;;;;;;;0.67;0.67;;;;;;;;4989370;28;45521;-79
2024/03/05 09:14:27;;;;;;;;;1.00;1.00;;;;;;;;5018903;28;45524;-79
2024/03/05 09:16:52;;;;;;;;;1.00;1.00;;;;;;;;5019388;28;45331;-81
2024/03/05 09:19:20;;;;;;;;;1.00;1.00;;;;;;;;5002073;28;45354;-79
2024/03/05 09:21:45;;;;;;;;;1.33;1.00;;;;;;;;5008855;28;45270;-79
2024/03/05 09:24:10;;;;;;;;;2.33;2.00;;;;;;;;5001366;28;46376;-79
2024/03/05 09:26:36;;;;;;;;;1.00;1.00;;;;;;;;5002937;28;47868;-80
2024/03/05 09:29:01;;;;;;;;;0.33;0.33;;;;;;;;5002197;28;45341;-80
2024/03/05 09:31:27;;;;;;;;;1.33;1.33;;;;;;;;5019051;28;45289;-79
2024/03/05 09:33:53;;;;;;;;;1.00;0.00;;;;;;;;4988426;28;47308;-80
2024/03/05 09:36:18;;;;;;;;;2.00;2.00;;;;;;;;4981910;28;48183;-79
2024/03/05 09:38:44;;;;;;;;;3.33;1.67;;;;;;;;4997875;28;45451;-78
2024/03/05 09:41:09;;;;;;;;;0.00;0.00;;;;;;;;4998563;28;45341;-77
2024/03/05 09:43:39;;;;;;;;;1.67;1.00;;;;;;;;4980622;28;45976;-78
2024/03/05 09:46:06;;;;;;;;;0.67;0.67;;;;;;;;4997660;28;45649;-78
2024/03/05 09:48:37;;;;;;;;;1.00;0.67;;;;;;;;4996661;28;45503;-78
2024/03/05 09:51:05;;;;;;;;;1.00;1.00;;;;;;;;4998859;28;45219;-79
2024/03/05 09:53:30;;;;;;;;;3.67;2.33;;;;;;;;5009550;28;45440;-78
2024/03/05 09:55:55;;;;;;;;;1.00;1.00;;;;;;;;5018444;28;45346;-77
2024/03/05 09:58:35;;;;;;;;;3.00;2.00;;;;;;;;4984832;28;45425;-77
2024/03/05 10:01:05;;;;;;;;;1.00;1.00;;;;;;;;4998625;28;45389;-77
2024/03/05 10:03:31;;;;;;;;;2.00;2.00;;;;;;;;4980261;28;46472;-79
2024/03/05 10:05:57;;;;;;;;;2.00;2.00;;;;;;;;4980783;28;47575;-78
2024/03/05 10:08:22;;;;;;;;;3.00;1.67;;;;;;;;5000773;28;45336;-78
2024/03/05 10:10:48;;;;;;;;;2.00;2.00;;;;;;;;4992609;28;45524;-78
2024/03/05 10:13:14;;;;;;;;;3.00;3.00;;;;;;;;4981851;28;45326;-79
2024/03/05 10:15:43;;;;;;;;;1.00;1.00;;;;;;;;4981764;28;45495;-78
2024/03/05 10:18:08;;;;;;;;;1.00;1.00;;;;;;;;4964623;28;45229;-79
2024/03/05 10:20:36;;;;;;;;;0.67;0.67;;;;;;;;4981721;28;45307;-79
2024/03/05 10:23:04;;;;;;;;;2.00;2.00;;;;;;;;4981897;28;45452;-78
2024/03/05 10:25:30;;;;;;;;;0.00;0.00;;;;;;;;4982036;28;45318;-77
2024/03/05 10:27:55;;;;;;;;;2.00;1.00;;;;;;;;4964380;28;45453;-77
2024/03/05 10:30:25;;;;;;;;;2.33;1.00;;;;;;;;4981400;28;45387;-78
2024/03/05 10:32:59;;;;;;;;;1.00;1.00;;;;;;;;4981912;28;45571;-79
2024/03/05 10:35:24;;;;;;;;;1.00;1.00;;;;;;;;4981946;28;45370;-78
2024/03/05 10:38:05;;;;;;;;;1.00;1.00;;;;;;;;4964315;28;45762;-80
2024/03/05 10:40:34;;;;;;;;;2.00;2.00;;;;;;;;4982533;28;45358;-77
2024/03/05 10:43:01;;;;;;;;;2.00;2.00;;;;;;;;4980807;28;45736;-77
2024/03/05 10:45:47;;;;;;;;;1.00;1.00;;;;;;;;4980888;28;46404;-79
2024/03/05 10:48:12;;;;;;;;;0.00;0.00;;;;;;;;4978281;28;45521;-77
2024/03/05 10:50:38;;;;;;;;;1.00;1.00;;;;;;;;4982245;28;45468;-79
2024/03/05 10:53:04;;;;;;;;;9.67;8.67;;;;;;;;4965167;28;46718;-80
2024/03/05 10:55:33;;;;;;;;;2.33;2.33;;;;;;;;4981760;28;45368;-81
2024/03/05 11:00:36;;;;;;;;;3.00;2.00;;;;;;;;5001020;28;45315;-79
2024/03/05 11:03:04;;;;;;;;;1.00;1.00;;;;;;;;5001319;28;45334;-78
2024/03/05 11:05:32;;;;;;;;;3.00;2.33;;;;;;;;4999838;28;45425;-78
2024/03/05 11:07:58;;;;;;;;;1.00;1.00;;;;;;;;4980908;28;45293;-79
2024/03/05 11:10:25;;;;;;;;;3.00;3.00;;;;;;;;4986619;28;45302;-78
2024/03/05 11:12:51;;;;;;;;;3.00;2.00;;;;;;;;5001531;28;45522;-79
2024/03/05 11:15:17;;;;;;;;;2.67;1.00;;;;;;;;4984101;28;48261;-78
2024/03/05 11:17:42;;;;;;;;;1.33;1.33;;;;;;;;4982809;28;45421;-80
2024/03/05 11:20:11;;;;;;;;;3.00;3.00;;;;;;;;5001062;28;45295;-79
2024/03/05 11:22:40;;;;;;;;;3.00;1.67;;;;;;;;4999956;28;45462;-81
2024/03/05 11:25:06;;;;;;;;;3.67;2.00;;;;;;;;5000937;28;45425;-80
2024/03/05 11:27:34;;;;;;;;;1.00;1.00;;;;;;;;5000459;28;45487;-78
2024/03/05 11:30:16;;;;;;;;;3.67;2.33;;;;;;;;4999947;28;45476;-81
2024/03/05 11:32:43;;;;;;;;;1.00;1.00;;;;;;;;5000979;28;45503;-79
2024/03/05 11:35:10;;;;;;;;;4.00;4.00;;;;;;;;4982739;28;47741;-77
2024/03/05 11:37:52;;;;;;;;;2.33;2.00;;;;;;;;5000816;28;45391;-78
2024/03/05 11:40:18;;;;;;;;;1.00;1.00;;;;;;;;4982329;28;45399;-80
2024/03/05 11:42:45;;;;;;;;;2.00;2.00;;;;;;;;4982260;28;46835;-80
2024/03/05 11:45:10;;;;;;;;;2.00;2.00;;;;;;;;4982871;28;48039;-80
2024/03/05 11:47:36;;;;;;;;;3.00;3.00;;;;;;;;4982586;28;45310;-80
2024/03/05 11:50:04;;;;;;;;;2.00;2.00;;;;;;;;4982763;28;45479;-80
2024/03/05 11:52:30;;;;;;;;;2.00;2.00;;;;;;;;5000620;28;45213;-81
2024/03/05 11:54:56;;;;;;;;;5.00;3.00;;;;;;;;5000578;28;45193;-79
2024/03/05 11:57:22;;;;;;;;;4.00;3.00;;;;;;;;4990446;28;45496;-80
2024/03/05 11:59:48;;;;;;;;;2.00;2.00;;;;;;;;5020370;28;45622;-80
2024/03/05 12:02:16;;;;;;;;;3.00;1.67;;;;;;;;5019977;28;45341;-80
2024/03/05 12:04:48;;;;;;;;;3.00;2.00;;;;;;;;5020063;28;46209;-80
2024/03/05 12:07:13;;;;;;;;;3.00;2.00;;;;;;;;5003631;28;45431;-81
2024/03/05 12:09:39;;;;;;;;;2.33;2.00;;;;;;;;5000294;28;45361;-80
2024/03/05 12:12:14;;;;;;;;;3.67;1.33;;;;;;;;5000126;28;45478;-79
2024/03/05 12:14:50;;;;;;;;;4.00;3.33;;;;;;;;4982544;28;46889;-80
2024/03/05 12:17:18;;;;;;;;;1.00;1.00;;;;;;;;4997866;28;45662;-79
2024/03/05 12:20:04;;;;;;;;;2.00;2.00;;;;;;;;4980819;28;45410;-79
2024/03/05 12:22:30;;;;;;;;;1.00;1.00;;;;;;;;4980845;28;46127;-78
2024/03/05 12:24:55;;;;;;;;;2.00;2.00;;;;;;;;5012018;28;45522;-79
2024/03/05 12:27:20;;;;;;;;;2.33;2.33;;;;;;;;5019919;28;45210;-82
2024/03/05 12:29:50;;;;;;;;;2.00;2.00;;;;;;;;5000257;28;45420;-81
2024/03/05 12:32:18;;;;;;;;;2.33;2.33;;;;;;;;4996281;28;46162;-82
2024/03/05 12:34:51;;;;;;;;;2.67;2.67;;;;;;;;5010042;28;45293;-83
2024/03/05 12:37:16;;;;;;;;;2.00;2.00;;;;;;;;5001281;28;46021;-81
2024/03/05 12:39:41;;;;;;;;;2.00;2.00;;;;;;;;4997430;28;45382;-80
2024/03/05 12:42:08;;;;;;;;;4.67;3.33;;;;;;;;4999224;28;45238;-80
2024/03/05 12:44:33;;;;;;;;;0.00;0.00;;;;;;;;4981773;28;47971;-80
2024/03/05 12:47:05;;;;;;;;;0.00;0.00;;;;;;;;4999332;28;45214;-80
2024/03/05 12:49:30;;;;;;;;;3.00;2.67;;;;;;;;4999317;28;45314;-79
2024/03/05 12:52:02;;;;;;;;;2.00;1.67;;;;;;;;4999459;28;45458;-78
2024/03/05 12:54:27;;;;;;;;;2.33;2.33;;;;;;;;4974333;28;46000;-80
2024/03/05 12:56:52;;;;;;;;;1.00;1.00;;;;;;;;4984977;28;45361;-79
2024/03/05 12:59:18;;;;;;;;;1.67;1.67;;;;;;;;5018944;28;45296;-80
2024/03/05 13:01:43;;;;;;;;;2.00;2.00;;;;;;;;5019091;28;45372;-80
2024/03/05 13:04:09;;;;;;;;;4.00;1.00;;;;;;;;5018462;28;46723;-80
2024/03/05 13:06:34;;;;;;;;;2.33;1.33;;;;;;;;5019699;28;45405;-79
2024/03/05 13:08:59;;;;;;;;;1.00;1.00;;;;;;;;5019028;28;45349;-78
2024/03/05 13:11:24;;;;;;;;;2.00;2.00;;;;;;;;5004292;28;45582;-79
2024/03/05 13:13:49;;;;;;;;;1.67;1.00;;;;;;;;4981393;28;47203;-79
2024/03/05 13:16:15;;;;;;;;;2.33;2.33;;;;;;;;4976564;28;45647;-78
2024/03/05 13:18:40;;;;;;;;;3.33;1.33;;;;;;;;4978779;28;45340;-77
2024/03/05 13:21:05;;;;;;;;;1.33;1.00;;;;;;;;4971846;28;45399;-78
2024/03/05 13:23:31;;;;;;;;;0.00;0.00;;;;;;;;4989309;28;46249;-79
2024/03/05 13:25:57;;;;;;;;;1.00;1.00;;;;;;;;4980226;28;45480;-79
2024/03/05 13:28:24;;;;;;;;;5.00;3.67;;;;;;;;4981162;28;45457;-76
2024/03/05 13:30:49;;;;;;;;;1.67;1.67;;;;;;;;4960255;28;45474;-77
2024/03/05 13:33:15;;;;;;;;;0.33;0.33;;;;;;;;4978786;28;46107;-77
2024/03/05 13:35:40;;;;;;;;;1.00;1.00;;;;;;;;4978101;28;45372;-76
2024/03/05 13:38:07;;;;;;;;;1.00;0.00;;;;;;;;4962023;28;45265;-78
2024/03/05 13:40:32;;;;;;;;;0.00;0.00;;;;;;;;4979348;28;45504;-77
2024/03/05 13:42:58;;;;;;;;;0.00;0.00;;;;;;;;4980989;28;46738;-78
2024/03/05 13:45:23;;;;;;;;;1.00;1.00;;;;;;;;4982633;28;45319;-77
2024/03/05 13:47:49;;;;;;;;;0.00;0.00;;;;;;;;4981176;28;45485;-79
2024/03/05 13:50:15;;;;;;;;;1.75;1.75;;;;;;;;4981572;28;45490;-78
2024/03/05 13:52:41;;;;;;;;;0.00;0.00;;;;;;;;4982448;28;45507;-80
2024/03/05 13:55:07;;;;;;;;;0.25;0.00;;;;;;;;4964947;28;46123;-81
2024/03/05 13:57:32;;;;;;;;;0.00;0.00;;;;;;;;4952567;28;45509;-80
2024/03/05 13:59:58;;;;;;;;;1.00;0.25;;;;;;;;4962864;28;45528;-79
2024/03/05 14:02:24;;;;;;;;;0.00;0.00;;;;;;;;4989493;28;45551;-80
2024/03/05 14:04:49;;;;;;;;;0.00;0.00;;;;;;;;5001895;28;45206;-79
2024/03/05 14:07:15;;;;;;;;;0.00;0.00;;;;;;;;5001644;28;45600;-80
2024/03/05 14:09:43;;;;;;;;;0.75;0.75;;;;;;;;5001977;28;45441;-79
2024/03/05 14:12:10;;;;;;;;;0.00;0.00;;;;;;;;4983801;28;48155;-79
2024/03/05 14:14:35;;;;;;;;;0.00;0.00;;;;;;;;4984307;28;45377;-75
2024/03/05 14:17:00;;;;;;;;;1.00;1.00;;;;;;;;5001608;28;45621;-74
2024/03/05 14:19:25;;;;;;;;;1.00;0.00;;;;;;;;5001538;28;45609;-74
2024/03/05 14:21:52;;;;;;;;;1.00;1.00;;;;;;;;5001428;28;45635;-75
2024/03/05 14:24:17;;;;;;;;;1.33;1.00;;;;;;;;5000138;28;45450;-77
2024/03/05 14:26:42;;;;;;;;;0.67;0.67;;;;;;;;4982122;28;45488;-76
2024/03/05 14:29:08;;;;;;;;;1.33;0.00;;;;;;;;4978628;28;45402;-77
2024/03/05 14:31:33;;;;;;;;;1.00;1.00;;;;;;;;4980536;28;46650;-78
2024/03/05 14:33:58;;;;;;;;;0.33;0.33;;;;;;;;4993051;28;45293;-79
2024/03/05 14:36:24;;;;;;;;;1.00;1.00;;;;;;;;5001813;28;45290;-78
2024/03/05 14:38:49;;;;;;;;;5.33;4.67;;;;;;;;5005078;28;45257;-77
2024/03/05 14:41:14;;;;;;;;;0.33;0.00;;;;;;;;5015106;28;46384;-79
2024/03/05 14:43:40;;;;;;;;;1.00;1.00;;;;;;;;4991770;28;45296;-79
2024/03/05 14:46:05;;;;;;;;;2.00;2.00;;;;;;;;4986734;28;45417;-79